Time;durP1;ratioP1;P1;durP2;ratioP2;P2;SDS_P1;SDS_P2;PMS_P1;PMS_P2;Temp;Humidity;BMP_temperature;BMP_pressure;BME280_temperature;BME280_humidity;BME280_pressure;Samples;Min_cycle;Max_cycle;Signal;HPM_P1;HPM_P2
2021/01/10 00:00:56;;;;;;;13.03;9.20;;;1.90;80.70;;;;;;5003912;28;20215;-88
2021/01/10 00:03:22;;;;;;;11.83;9.20;;;1.80;81.00;;;;;;5004503;28;20603;-88
2021/01/10 00:05:48;;;;;;;10.23;9.13;;;1.90;80.50;;;;;;5039223;28;20204;-88
2021/01/10 00:08:13;;;;;;;11.67;9.57;;;1.90;80.60;;;;;;5040955;28;20205;-88
2021/01/10 00:10:39;;;;;;;10.37;8.83;;;2.00;79.50;;;;;;5023420;28;20262;-88
2021/01/10 00:13:05;;;;;;;9.87;8.87;;;1.90;79.50;;;;;;5041805;28;20180;-87
2021/01/10 00:15:31;;;;;;;10.30;9.20;;;1.90;79.70;;;;;;5041111;28;20177;-88
2021/01/10 00:17:57;;;;;;;9.73;8.73;;;1.90;80.10;;;;;;5040956;28;20200;-88
2021/01/10 00:20:23;;;;;;;10.33;9.27;;;1.90;81.00;;;;;;5041294;28;20188;-87
2021/01/10 00:22:56;;;;;;;10.83;9.37;;;2.00;80.00;;;;;;5040931;28;20223;-87
2021/01/10 00:25:23;;;;;;;10.53;9.43;;;2.00;80.10;;;;;;5040979;28;20212;-87
2021/01/10 00:27:50;;;;;;;10.07;8.33;;;2.00;79.50;;;;;;5040986;28;20197;-87
2021/01/10 00:30:18;;;;;;;10.73;8.73;;;2.00;79.70;;;;;;5023092;28;20216;-87
2021/01/10 00:32:51;;;;;;;10.50;9.33;;;1.90;79.70;;;;;;5039526;28;20833;-88
2021/01/10 00:35:17;;;;;;;10.40;8.40;;;2.00;80.40;;;;;;5041246;28;20211;-87
2021/01/10 00:37:47;;;;;;;10.27;8.67;;;1.90;80.90;;;;;;5025358;28;20225;-88
2021/01/10 00:40:13;;;;;;;9.87;8.67;;;2.00;80.60;;;;;;5018066;28;20182;-88
2021/01/10 00:42:41;;;;;;;10.70;8.67;;;2.00;80.40;;;;;;5021237;28;20185;-88
2021/01/10 00:45:07;;;;;;;8.83;7.93;;;2.00;79.90;;;;;;5022156;28;20308;-87
2021/01/10 00:47:33;;;;;;;12.40;8.70;;;2.00;80.20;;;;;;5021342;28;20202;-87
2021/01/10 00:49:59;;;;;;;10.50;9.07;;;1.90;80.30;;;;;;5021260;28;20215;-89
2021/01/10 00:52:28;;;;;;;9.83;8.83;;;2.00;79.60;;;;;;5020851;28;20209;-88
2021/01/10 00:54:54;;;;;;;10.47;9.40;;;2.00;78.80;;;;;;5019636;28;20196;-88
2021/01/10 00:57:20;;;;;;;10.30;9.30;;;1.90;78.90;;;;;;5021200;28;20177;-88
2021/01/10 00:59:48;;;;;;;10.50;9.50;;;1.80;79.10;;;;;;5021533;28;20182;-87
2021/01/10 01:02:13;;;;;;;10.10;9.10;;;1.90;80.00;;;;;;5020683;28;20189;-87
2021/01/10 01:04:39;;;;;;;10.33;9.17;;;1.80;79.80;;;;;;5022312;28;20249;-87
2021/01/10 01:07:05;;;;;;;11.87;9.90;;;1.80;79.70;;;;;;5020889;28;20190;-88
2021/01/10 01:09:31;;;;;;;10.00;8.83;;;1.70;80.30;;;;;;5020142;28;20232;-88
2021/01/10 01:11:57;;;;;;;11.23;9.33;;;1.80;80.70;;;;;;5021007;28;20217;-86
2021/01/10 01:14:22;;;;;;;10.77;9.47;;;1.80;80.90;;;;;;5021091;28;20186;-86
2021/01/10 01:16:48;;;;;;;11.43;9.77;;;1.80;80.50;;;;;;5020663;28;20209;-88
2021/01/10 01:19:14;;;;;;;10.13;9.03;;;1.80;80.00;;;;;;5020718;28;20661;-88
2021/01/10 01:21:39;;;;;;;10.60;9.20;;;1.80;80.50;;;;;;5019906;28;20663;-88
2021/01/10 01:24:06;;;;;;;9.93;8.90;;;1.90;80.60;;;;;;5020472;28;20185;-88
2021/01/10 01:26:32;;;;;;;9.87;8.77;;;1.80;81.40;;;;;;5020871;28;20185;-88
2021/01/10 01:28:57;;;;;;;12.17;8.97;;;1.90;80.90;;;;;;5021182;28;20849;-87
2021/01/10 01:31:26;;;;;;;9.33;8.33;;;1.90;80.70;;;;;;5022402;28;20289;-87
2021/01/10 01:33:52;;;;;;;9.77;8.77;;;1.90;81.10;;;;;;5021357;28;20724;-88
2021/01/10 01:36:29;;;;;;;11.57;9.30;;;1.90;80.90;;;;;;5019256;28;20221;-87
2021/01/10 01:38:57;;;;;;;11.00;8.73;;;1.80;80.90;;;;;;5019955;28;20532;-87
2021/01/10 01:41:23;;;;;;;10.87;9.30;;;1.80;81.10;;;;;;5020393;28;20209;-87
2021/01/10 01:43:50;;;;;;;10.73;8.77;;;1.70;80.90;;;;;;5021999;28;20185;-87
2021/01/10 01:46:29;;;;;;;9.47;8.20;;;1.60;81.60;;;;;;5024297;28;20186;-88
2021/01/10 01:48:59;;;;;;;9.67;8.37;;;1.60;82.00;;;;;;5024398;28;20201;-88
2021/01/10 01:51:25;;;;;;;10.10;8.40;;;1.70;81.90;;;;;;5024336;28;20580;-87
2021/01/10 01:53:52;;;;;;;9.27;8.17;;;1.70;82.10;;;;;;5024287;28;20182;-88
2021/01/10 01:56:18;;;;;;;11.17;9.73;;;1.70;80.60;;;;;;5024193;28;20182;-87
2021/01/10 01:59:02;;;;;;;9.87;8.87;;;1.70;80.90;;;;;;5024117;28;20229;-87
2021/01/10 02:01:30;;;;;;;10.77;8.93;;;1.80;80.40;;;;;;5022761;28;20193;-87
2021/01/10 02:04:01;;;;;;;9.70;8.70;;;1.70;80.90;;;;;;5023788;28;20204;-87
2021/01/10 02:06:34;;;;;;;10.40;8.43;;;1.80;79.20;;;;;;5023957;28;20668;-87
2021/01/10 02:09:04;;;;;;;10.70;8.17;;;1.70;79.50;;;;;;5023956;28;20684;-88
2021/01/10 02:11:33;;;;;;;10.27;9.10;;;1.80;79.50;;;;;;5004506;28;20640;-87
2021/01/10 02:14:04;;;;;;;9.30;8.30;;;1.70;79.60;;;;;;5004154;28;20186;-87
2021/01/10 02:16:30;;;;;;;9.87;8.40;;;1.70;79.40;;;;;;5003944;28;20194;-87
2021/01/10 02:18:57;;;;;;;9.60;8.00;;;1.70;79.30;;;;;;5002581;28;20206;-87
2021/01/10 02:21:24;;;;;;;9.03;7.97;;;1.80;78.50;;;;;;5003061;28;20187;-87
2021/01/10 02:23:53;;;;;;;9.47;8.20;;;1.80;78.70;;;;;;5003845;28;20186;-88
2021/01/10 02:26:19;;;;;;;10.00;8.03;;;1.70;78.80;;;;;;5003730;28;20198;-87
2021/01/10 02:28:45;;;;;;;8.23;7.10;;;1.70;78.80;;;;;;5004091;28;20202;-87
2021/01/10 02:31:12;;;;;;;9.87;8.27;;;1.70;79.50;;;;;;5004207;28;20206;-88
2021/01/10 02:33:50;;;;;;;8.23;7.40;;;1.60;78.90;;;;;;5003867;28;20197;-87
2021/01/10 02:36:27;;;;;;;9.27;7.40;;;1.70;78.00;;;;;;5003686;28;20183;-87
2021/01/10 02:38:57;;;;;;;8.63;7.70;;;1.60;78.10;;;;;;5003701;28;20685;-87
2021/01/10 02:42:04;;;;;;;8.40;7.17;;;1.60;78.70;;;;;;5003666;28;20614;-87
2021/01/10 02:44:46;;;;;;;8.77;7.33;;;1.70;77.90;;;;;;4995583;28;20198;-87
2021/01/10 02:47:12;;;;;;;9.00;7.20;;;1.50;77.60;;;;;;5003614;28;20171;-87
2021/01/10 02:49:38;;;;;;;10.13;7.70;;;1.50;78.70;;;;;;4985958;28;20198;-86
2021/01/10 02:52:04;;;;;;;8.30;6.77;;;1.60;79.00;;;;;;5002997;28;20293;-88
2021/01/10 02:54:30;;;;;;;8.10;7.30;;;1.60;79.70;;;;;;5003193;28;20225;-87
2021/01/10 02:57:23;;;;;;;10.00;7.83;;;1.70;78.10;;;;;;5003347;28;20210;-87
2021/01/10 02:59:51;;;;;;;8.50;7.00;;;1.70;77.90;;;;;;5003755;28;20155;-89
2021/01/10 03:02:19;;;;;;;7.90;7.00;;;1.70;77.90;;;;;;5003208;28;20544;-87
2021/01/10 03:04:45;;;;;;;7.87;7.07;;;1.70;78.90;;;;;;5002965;28;20544;-87
2021/01/10 03:07:11;;;;;;;8.10;7.30;;;1.70;77.20;;;;;;5003337;28;20221;-87
2021/01/10 03:09:37;;;;;;;9.03;7.60;;;1.70;78.20;;;;;;5002999;28;20186;-88
2021/01/10 03:12:12;;;;;;;8.37;7.47;;;1.60;78.40;;;;;;5003088;28;20206;-87
2021/01/10 03:14:45;;;;;;;8.17;7.33;;;1.60;78.50;;;;;;5002877;28;20177;-87
2021/01/10 03:17:33;;;;;;;9.43;7.43;;;1.50;78.70;;;;;;5002399;28;20186;-87
2021/01/10 03:19:59;;;;;;;8.57;7.67;;;1.50;79.40;;;;;;4993039;28;20194;-88
2021/01/10 03:22:26;;;;;;;9.47;8.13;;;1.40;79.90;;;;;;5002843;28;20237;-87
2021/01/10 03:24:52;;;;;;;9.37;7.77;;;1.50;80.40;;;;;;4985223;28;20187;-87
2021/01/10 03:27:17;;;;;;;9.37;8.20;;;1.50;80.50;;;;;;5002429;28;20194;-87
2021/01/10 03:29:43;;;;;;;9.40;8.50;;;1.50;80.50;;;;;;5002465;28;20186;-87
2021/01/10 03:32:09;;;;;;;9.93;8.20;;;1.50;80.70;;;;;;4983084;28;20681;-87
2021/01/10 03:34:34;;;;;;;9.80;7.77;;;1.50;80.90;;;;;;5002796;28;20182;-87
2021/01/10 03:37:00;;;;;;;9.97;8.13;;;1.50;81.40;;;;;;5003956;28;20187;-87
2021/01/10 03:39:26;;;;;;;9.63;8.63;;;1.50;80.30;;;;;;5022593;28;20304;-87
2021/01/10 03:41:52;;;;;;;9.80;8.13;;;1.50;81.20;;;;;;5022781;28;20641;-87
2021/01/10 03:44:18;;;;;;;9.40;8.50;;;1.50;81.10;;;;;;5022841;28;20212;-87
2021/01/10 03:46:43;;;;;;;10.70;9.20;;;1.50;81.40;;;;;;5022824;28;20177;-87
2021/01/10 03:49:09;;;;;;;10.90;8.90;;;1.50;81.60;;;;;;5004564;28;20198;-88
2021/01/10 03:51:34;;;;;;;9.90;8.90;;;1.50;80.90;;;;;;5004666;28;20209;-87
2021/01/10 03:54:00;;;;;;;9.30;7.90;;;1.40;81.10;;;;;;5022900;28;20185;-87
2021/01/10 03:56:26;;;;;;;9.60;8.60;;;1.40;81.30;;;;;;5022907;28;20196;-87
2021/01/10 03:58:52;;;;;;;9.27;8.07;;;1.30;81.50;;;;;;5003867;28;20198;-88
2021/01/10 04:01:17;;;;;;;9.97;8.00;;;1.30;82.40;;;;;;5022118;28;20770;-88
2021/01/10 04:03:43;;;;;;;11.77;8.87;;;1.30;81.90;;;;;;5021511;28;20291;-87
2021/01/10 04:06:08;;;;;;;9.17;7.97;;;1.30;81.70;;;;;;5020786;28;20303;-88
2021/01/10 04:08:34;;;;;;;9.57;8.47;;;1.20;82.60;;;;;;5003644;28;20263;-87
2021/01/10 04:11:00;;;;;;;9.33;8.27;;;1.20;82.30;;;;;;5022348;28;20202;-87
2021/01/10 04:13:25;;;;;;;10.53;8.47;;;1.30;82.00;;;;;;5021780;28;20232;-88
2021/01/10 04:15:51;;;;;;;9.43;8.03;;;1.20;82.50;;;;;;5004540;28;20205;-87
2021/01/10 04:18:16;;;;;;;9.37;8.13;;;1.20;82.00;;;;;;5021260;28;20210;-88
2021/01/10 04:20:42;;;;;;;8.67;7.77;;;1.20;82.30;;;;;;5021587;28;20178;-87
2021/01/10 04:23:08;;;;;;;10.33;8.87;;;1.20;82.60;;;;;;5004067;28;20200;-87
2021/01/10 04:25:33;;;;;;;9.03;8.13;;;1.20;82.70;;;;;;5004214;28;20197;-88
2021/01/10 04:27:59;;;;;;;9.63;8.50;;;1.20;82.80;;;;;;5021501;28;20710;-87
2021/01/10 04:30:25;;;;;;;8.80;7.23;;;1.20;82.60;;;;;;5021438;28;20683;-87
2021/01/10 04:32:51;;;;;;;9.13;8.00;;;1.20;82.70;;;;;;5021277;28;20231;-88
2021/01/10 04:35:17;;;;;;;9.53;8.20;;;1.10;82.90;;;;;;5021636;28;20205;-87
2021/01/10 04:37:43;;;;;;;9.53;8.47;;;1.10;83.60;;;;;;5021354;28;20229;-87
2021/01/10 04:40:09;;;;;;;11.17;8.77;;;1.10;82.40;;;;;;5022484;28;20166;-88
2021/01/10 04:42:35;;;;;;;9.57;8.43;;;1.10;82.80;;;;;;5021714;28;20185;-87
2021/01/10 04:45:01;;;;;;;9.40;8.40;;;1.00;82.90;;;;;;5021796;28;20231;-87
2021/01/10 04:47:27;;;;;;;9.13;8.23;;;1.00;83.10;;;;;;5004182;28;20193;-86
2021/01/10 04:49:53;;;;;;;8.90;8.00;;;0.90;83.60;;;;;;5022357;28;20190;-88
2021/01/10 04:52:20;;;;;;;9.07;8.17;;;0.90;83.90;;;;;;5021769;28;20228;-87
2021/01/10 04:54:46;;;;;;;8.50;7.70;;;0.90;83.80;;;;;;5004648;28;20520;-86
2021/01/10 04:57:18;;;;;;;9.20;7.73;;;1.00;83.90;;;;;;5021999;28;20201;-87
2021/01/10 04:59:44;;;;;;;9.37;7.73;;;1.00;83.70;;;;;;5003960;28;20162;-88
2021/01/10 05:02:10;;;;;;;12.07;8.80;;;1.00;84.00;;;;;;5003440;28;20562;-88
2021/01/10 05:04:37;;;;;;;9.60;7.40;;;1.00;83.60;;;;;;4987257;28;20193;-87
2021/01/10 05:07:03;;;;;;;9.03;8.13;;;1.00;83.80;;;;;;5021182;28;20228;-86
2021/01/10 05:09:31;;;;;;;9.07;7.97;;;1.00;83.40;;;;;;5020943;28;20220;-86
2021/01/10 05:11:57;;;;;;;8.60;7.70;;;1.10;83.20;;;;;;5021561;28;20248;-87
2021/01/10 05:14:23;;;;;;;9.73;7.50;;;1.00;82.60;;;;;;5021487;28;20173;-87
2021/01/10 05:16:48;;;;;;;8.23;7.33;;;1.00;82.20;;;;;;5022479;28;20181;-87
2021/01/10 05:19:20;;;;;;;8.57;7.67;;;1.00;83.20;;;;;;5025450;28;20255;-87
2021/01/10 05:21:46;;;;;;;8.93;7.50;;;1.00;83.50;;;;;;5025323;28;20169;-86
2021/01/10 05:24:18;;;;;;;8.87;7.87;;;1.00;82.50;;;;;;5025151;28;20173;-87
2021/01/10 05:26:44;;;;;;;9.73;8.70;;;0.90;83.00;;;;;;5025160;28;20173;-87
2021/01/10 05:29:12;;;;;;;8.77;7.00;;;0.90;82.20;;;;;;5025256;28;20232;-86
2021/01/10 05:31:42;;;;;;;9.37;7.67;;;0.80;81.60;;;;;;5024429;28;20564;-87
2021/01/10 05:34:09;;;;;;;9.90;7.70;;;0.80;82.20;;;;;;5024803;28;20181;-87
2021/01/10 05:36:36;;;;;;;9.17;7.33;;;0.70;82.40;;;;;;5024957;28;20541;-87
2021/01/10 05:39:24;;;;;;;8.30;7.33;;;0.70;82.80;;;;;;5020042;28;20224;-89
2021/01/10 05:41:54;;;;;;;8.97;7.73;;;0.70;82.70;;;;;;5026134;28;20709;-87
2021/01/10 05:44:21;;;;;;;9.33;7.70;;;0.50;83.00;;;;;;5024131;28;20185;-88
2021/01/10 05:46:47;;;;;;;9.40;7.77;;;0.50;83.70;;;;;;5025451;28;20200;-87
2021/01/10 05:49:21;;;;;;;10.87;7.50;;;0.60;83.20;;;;;;5024841;28;20210;-87
2021/01/10 05:51:48;;;;;;;7.83;7.03;;;0.50;83.60;;;;;;5024482;28;20229;-87
2021/01/10 05:54:34;;;;;;;8.63;7.73;;;0.60;83.80;;;;;;5026241;28;20197;-87
2021/01/10 05:57:04;;;;;;;8.03;6.47;;;0.60;83.30;;;;;;5025201;28;20178;-88
2021/01/10 05:59:33;;;;;;;8.50;7.57;;;0.60;83.90;;;;;;5025477;28;20297;-87
2021/01/10 06:02:02;;;;;;;8.10;7.30;;;0.60;82.30;;;;;;5024568;28;20205;-88
2021/01/10 06:04:28;;;;;;;7.53;6.80;;;0.50;82.80;;;;;;5024930;28;20181;-88
2021/01/10 06:06:54;;;;;;;8.13;7.07;;;0.50;83.10;;;;;;5024547;28;20313;-88
2021/01/10 06:09:21;;;;;;;8.07;6.97;;;0.40;83.40;;;;;;5024799;28;20201;-87
2021/01/10 06:11:46;;;;;;;8.17;6.90;;;0.40;83.60;;;;;;5024041;28;20216;-87
2021/01/10 06:14:19;;;;;;;9.10;7.07;;;0.40;83.00;;;;;;5024128;28;20185;-87
2021/01/10 06:16:52;;;;;;;8.50;7.33;;;0.40;83.70;;;;;;5024096;28;20201;-88
2021/01/10 06:19:20;;;;;;;8.10;7.00;;;0.30;83.20;;;;;;5024042;28;20202;-87
2021/01/10 06:21:50;;;;;;;8.30;6.77;;;0.30;84.20;;;;;;5023200;28;20201;-87
2021/01/10 06:24:19;;;;;;;8.73;7.13;;;0.20;84.50;;;;;;5024604;28;20189;-87
2021/01/10 06:26:50;;;;;;;8.63;7.30;;;0.20;85.60;;;;;;5025703;28;20186;-86
2021/01/10 06:29:19;;;;;;;7.30;6.50;;;0.20;85.10;;;;;;5027894;28;20236;-88
2021/01/10 06:31:51;;;;;;;7.30;6.60;;;0.30;85.50;;;;;;5023204;28;20210;-87
2021/01/10 06:34:20;;;;;;;8.43;7.40;;;0.30;85.20;;;;;;5023339;28;20238;-87
2021/01/10 06:36:46;;;;;;;7.70;6.63;;;0.30;85.00;;;;;;5030108;28;20190;-87
2021/01/10 06:39:18;;;;;;;8.47;6.90;;;0.40;84.80;;;;;;5026534;28;20311;-87
2021/01/10 06:41:56;;;;;;;8.00;7.20;;;0.30;84.60;;;;;;5024674;28;20177;-88
2021/01/10 06:44:23;;;;;;;7.30;6.37;;;0.40;84.00;;;;;;5022392;28;20204;-88
2021/01/10 06:46:54;;;;;;;8.60;7.47;;;0.40;84.20;;;;;;5022707;28;20185;-87
2021/01/10 06:49:20;;;;;;;8.07;7.20;;;0.40;83.60;;;;;;5022527;28;20209;-87
2021/01/10 06:51:49;;;;;;;8.47;7.10;;;0.30;83.80;;;;;;5021193;28;20729;-87
2021/01/10 06:54:15;;;;;;;8.57;7.53;;;0.30;84.30;;;;;;5022086;28;20196;-87
2021/01/10 06:56:51;;;;;;;8.37;6.93;;;0.30;84.00;;;;;;5021582;28;20182;-87
2021/01/10 06:59:25;;;;;;;8.50;7.60;;;0.20;83.50;;;;;;5019509;28;20212;-87
2021/01/10 07:01:51;;;;;;;10.47;6.80;;;0.10;83.80;;;;;;5021661;28;20182;-87
2021/01/10 07:04:19;;;;;;;6.93;6.23;;;0.10;85.10;;;;;;5021202;28;20189;-88
2021/01/10 07:06:46;;;;;;;8.57;6.90;;;0.20;85.50;;;;;;5019402;28;20186;-87
2021/01/10 07:09:12;;;;;;;8.00;6.80;;;0.20;84.60;;;;;;5020683;28;20264;-88
2021/01/10 07:11:38;;;;;;;7.20;6.47;;;0.20;84.70;;;;;;5020812;28;20250;-88
2021/01/10 07:14:04;;;;;;;8.07;7.27;;;0.20;85.00;;;;;;5020738;28;20210;-88
2021/01/10 07:16:29;;;;;;;8.03;7.00;;;0.20;84.10;;;;;;5020618;28;20178;-87
2021/01/10 07:19:03;;;;;;;7.93;6.60;;;0.30;83.70;;;;;;5020435;28;20209;-87
2021/01/10 07:21:39;;;;;;;9.17;6.87;;;0.20;83.40;;;;;;5020633;28;20581;-88
2021/01/10 07:24:16;;;;;;;7.50;6.47;;;0.20;84.50;;;;;;5020739;28;20177;-88
2021/01/10 07:26:46;;;;;;;8.50;7.13;;;0.20;84.00;;;;;;5018829;28;20189;-88
2021/01/10 07:29:33;;;;;;;8.83;7.57;;;0.10;84.00;;;;;;5022005;28;20221;-85
2021/01/10 07:32:13;;;;;;;7.60;6.70;;;0.10;84.00;;;;;;5022165;28;20544;-85
2021/01/10 07:34:44;;;;;;;8.73;7.57;;;0.10;84.20;;;;;;5021305;28;20188;-85
2021/01/10 07:37:11;;;;;;;8.97;7.83;;;0.10;85.00;;;;;;5022117;28;20199;-85
2021/01/10 07:39:49;;;;;;;17.77;13.20;;;0.10;85.00;;;;;;5022127;28;20209;-85
2021/01/10 07:42:17;;;;;;;16.10;13.07;;;0.20;84.30;;;;;;5022118;28;20181;-88
2021/01/10 07:44:49;;;;;;;22.23;16.07;;;0.10;85.30;;;;;;5020249;28;20197;-87
2021/01/10 07:47:17;;;;;;;14.77;12.50;;;0.10;85.50;;;;;;5021613;28;20194;-87
2021/01/10 07:49:51;;;;;;;11.77;9.20;;;0.10;85.10;;;;;;5003369;28;20186;-89
2021/01/10 07:52:37;;;;;;;9.10;7.67;;;0.10;85.00;;;;;;5022123;28;20209;-88
2021/01/10 07:55:03;;;;;;;8.27;7.33;;;0.10;85.20;;;;;;5019348;28;20649;-89
2021/01/10 07:57:31;;;;;;;9.37;8.23;;;0.10;84.40;;;;;;5019977;28;20186;-89
2021/01/10 08:00:08;;;;;;;7.80;6.57;;;0.10;85.10;;;;;;5002823;28;20189;-88
2021/01/10 08:02:53;;;;;;;11.00;7.77;;;0.20;85.00;;;;;;5019157;28;20185;-89
2021/01/10 08:05:35;;;;;;;9.00;7.93;;;0.20;84.80;;;;;;5014480;28;20182;-89
2021/01/10 08:08:16;;;;;;;9.53;7.50;;;0.20;86.00;;;;;;5002301;28;20213;-89
2021/01/10 08:10:48;;;;;;;9.37;8.13;;;0.40;84.80;;;;;;4989797;28;20668;-88
2021/01/10 08:13:33;;;;;;;11.13;9.97;;;0.30;84.10;;;;;;4983093;28;20182;-89
2021/01/10 08:16:02;;;;;;;10.60;9.50;;;0.40;83.90;;;;;;4993332;28;20189;-88
2021/01/10 08:18:33;;;;;;;9.03;7.80;;;0.30;84.60;;;;;;5021147;28;20265;-89
2021/01/10 08:21:00;;;;;;;8.97;8.03;;;0.30;85.10;;;;;;5003136;28;20190;-89
2021/01/10 08:23:26;;;;;;;11.57;9.40;;;0.30;85.60;;;;;;5020503;28;20174;-89
2021/01/10 08:26:01;;;;;;;13.23;10.40;;;0.50;84.40;;;;;;5002903;28;20185;-89
2021/01/10 08:28:29;;;;;;;12.30;9.53;;;0.50;84.40;;;;;;5003500;28;20718;-88
2021/01/10 08:31:01;;;;;;;9.57;8.57;;;0.50;84.20;;;;;;5000611;28;20694;-89
2021/01/10 08:33:26;;;;;;;9.40;8.40;;;0.50;84.40;;;;;;5003978;28;20240;-89
2021/01/10 08:35:52;;;;;;;10.87;8.77;;;0.50;83.80;;;;;;5020865;28;20189;-88
2021/01/10 08:38:18;;;;;;;9.10;8.20;;;0.50;84.70;;;;;;5020414;28;20217;-89
2021/01/10 08:40:43;;;;;;;14.13;10.40;;;0.50;83.40;;;;;;5020005;28;20196;-88
2021/01/10 08:43:09;;;;;;;16.43;13.10;;;0.60;83.30;;;;;;5020092;28;20177;-89
2021/01/10 08:45:35;;;;;;;10.00;8.83;;;0.60;82.60;;;;;;5019457;28;20245;-88
2021/01/10 08:48:02;;;;;;;18.63;16.47;;;0.60;82.70;;;;;;5019871;28;20291;-89
2021/01/10 08:50:38;;;;;;;13.43;12.03;;;0.60;82.50;;;;;;5019320;28;20181;-89
2021/01/10 08:53:03;;;;;;;14.87;11.50;;;0.70;81.40;;;;;;5018942;28;20158;-88
2021/01/10 08:55:40;;;;;;;17.53;15.67;;;0.60;82.00;;;;;;5001646;28;20220;-88
2021/01/10 08:58:08;;;;;;;14.03;11.83;;;0.60;81.80;;;;;;5002259;28;20228;-88
2021/01/10 09:00:38;;;;;;;12.87;11.53;;;0.50;81.90;;;;;;5019568;28;20555;-89
2021/01/10 09:03:15;;;;;;;20.30;18.50;;;0.50;83.30;;;;;;5024322;28;20181;-89
2021/01/10 09:05:42;;;;;;;13.30;10.90;;;0.60;82.00;;;;;;5000552;28;20210;-88
2021/01/10 09:08:25;;;;;;;12.33;10.63;;;0.70;81.00;;;;;;5005009;28;20219;-89
2021/01/10 09:11:03;;;;;;;14.00;12.73;;;0.60;81.30;;;;;;5021807;28;20217;-88
2021/01/10 09:13:32;;;;;;;13.87;12.57;;;0.70;81.00;;;;;;5019461;28;20648;-89
2021/01/10 09:15:59;;;;;;;10.97;9.87;;;0.60;81.90;;;;;;5018885;28;20189;-88
2021/01/10 09:18:28;;;;;;;11.60;10.37;;;0.70;81.70;;;;;;5019869;28;20209;-88
2021/01/10 09:21:14;;;;;;;10.83;8.40;;;0.70;81.70;;;;;;5023325;28;20216;-87
2021/01/10 09:23:51;;;;;;;8.97;8.07;;;0.70;81.20;;;;;;5020770;28;20178;-88
2021/01/10 09:26:34;;;;;;;11.10;8.83;;;0.70;81.30;;;;;;5001670;28;20188;-88
2021/01/10 09:29:02;;;;;;;9.50;8.20;;;0.80;81.10;;;;;;5002087;28;20252;-88
2021/01/10 09:31:45;;;;;;;10.70;8.43;;;0.80;81.40;;;;;;5005062;28;20209;-88
2021/01/10 09:34:11;;;;;;;11.23;9.63;;;0.90;79.80;;;;;;5015229;28;20181;-87
2021/01/10 09:36:38;;;;;;;10.53;9.30;;;0.90;80.40;;;;;;5020862;28;20555;-87
2021/01/10 09:39:06;;;;;;;9.60;7.80;;;0.90;80.50;;;;;;5021848;28;20217;-86
2021/01/10 09:41:32;;;;;;;11.97;9.80;;;0.90;79.80;;;;;;5020551;28;20174;-87
2021/01/10 09:44:01;;;;;;;10.00;8.30;;;1.00;81.00;;;;;;5017180;28;20216;-87
2021/01/10 09:46:28;;;;;;;9.60;8.20;;;1.00;80.30;;;;;;5017901;28;20212;-87
2021/01/10 09:49:00;;;;;;;10.80;8.53;;;1.00;79.80;;;;;;5019148;28;20228;-87
2021/01/10 09:51:34;;;;;;;11.67;7.93;;;1.00;80.20;;;;;;5018978;28;20232;-87
2021/01/10 09:54:16;;;;;;;9.00;7.80;;;0.90;80.90;;;;;;5019451;28;20536;-86
2021/01/10 09:56:42;;;;;;;9.10;7.50;;;0.90;79.80;;;;;;5018041;28;20260;-87
2021/01/10 09:59:37;;;;;;;15.53;8.33;;;0.90;80.20;;;;;;5020566;28;20198;-86
2021/01/10 10:02:12;;;;;;;8.50;7.57;;;0.90;80.10;;;;;;5020005;28;20182;-86
2021/01/10 10:04:38;;;;;;;10.73;7.80;;;1.00;80.60;;;;;;5023094;28;20195;-86
2021/01/10 10:07:04;;;;;;;10.63;8.37;;;1.10;78.90;;;;;;5025985;28;20228;-87
2021/01/10 10:09:50;;;;;;;9.57;8.43;;;1.20;79.20;;;;;;5025804;28;20205;-86
2021/01/10 10:12:16;;;;;;;9.33;8.13;;;1.30;78.60;;;;;;5024761;28;20194;-86
2021/01/10 10:14:53;;;;;;;10.17;7.93;;;1.30;78.40;;;;;;5009524;28;20192;-88
2021/01/10 10:17:27;;;;;;;11.17;8.70;;;1.40;78.30;;;;;;5007332;28;20197;-87
2021/01/10 10:19:53;;;;;;;9.13;8.20;;;1.50;77.20;;;;;;5025212;28;20177;-86
2021/01/10 10:22:26;;;;;;;9.67;8.67;;;1.70;76.80;;;;;;5007422;28;20185;-87
2021/01/10 10:24:53;;;;;;;9.80;8.60;;;1.80;75.90;;;;;;5010539;28;20185;-89
2021/01/10 10:27:19;;;;;;;11.10;8.07;;;1.80;75.50;;;;;;5025032;28;20252;-87
2021/01/10 10:29:45;;;;;;;9.23;7.63;;;1.90;75.40;;;;;;5025644;28;20216;-87
2021/01/10 10:32:11;;;;;;;9.17;7.47;;;2.00;74.80;;;;;;5025809;28;20213;-88
2021/01/10 10:34:37;;;;;;;9.17;7.63;;;2.10;74.00;;;;;;5024806;28;20205;-87
2021/01/10 10:37:04;;;;;;;9.07;7.50;;;2.30;73.40;;;;;;5024510;28;20632;-87
2021/01/10 10:39:30;;;;;;;8.83;7.60;;;2.40;71.80;;;;;;5024549;28;20260;-88
2021/01/10 10:41:56;;;;;;;8.00;7.10;;;2.60;70.80;;;;;;5021220;28;20185;-88
2021/01/10 10:44:21;;;;;;;9.60;8.23;;;2.60;69.50;;;;;;5022520;28;20174;-88
2021/01/10 10:46:47;;;;;;;8.67;7.77;;;2.70;69.00;;;;;;5020373;28;20196;-87
2021/01/10 10:49:13;;;;;;;8.67;7.77;;;2.70;69.60;;;;;;5025752;28;20296;-88
2021/01/10 10:51:39;;;;;;;7.93;7.13;;;2.90;68.10;;;;;;5026689;28;20210;-88
2021/01/10 10:54:04;;;;;;;8.50;7.70;;;3.00;69.00;;;;;;5023757;28;20193;-87
2021/01/10 10:56:39;;;;;;;8.93;7.90;;;3.10;68.20;;;;;;5004883;28;20177;-87
2021/01/10 10:59:06;;;;;;;8.83;7.93;;;3.20;67.80;;;;;;5004370;28;20209;-87
2021/01/10 11:01:44;;;;;;;8.13;7.30;;;3.20;66.90;;;;;;5023145;28;20193;-87
2021/01/10 11:04:10;;;;;;;10.17;8.00;;;3.20;66.30;;;;;;5014160;28;20653;-85
2021/01/10 11:06:36;;;;;;;10.47;8.53;;;3.20;68.10;;;;;;5021561;28;20243;-88
2021/01/10 11:09:08;;;;;;;8.80;7.60;;;3.20;66.70;;;;;;5004250;28;20210;-87
2021/01/10 11:11:45;;;;;;;10.67;8.03;;;3.30;66.40;;;;;;5003088;28;20301;-87
2021/01/10 11:14:12;;;;;;;8.00;7.20;;;3.40;66.10;;;;;;5022055;28;20540;-87
2021/01/10 11:16:43;;;;;;;8.20;7.40;;;3.50;65.40;;;;;;5018701;28;20182;-88
2021/01/10 11:19:10;;;;;;;9.33;7.27;;;3.60;65.00;;;;;;5019631;28;20281;-88
2021/01/10 11:21:38;;;;;;;7.97;7.17;;;3.70;64.40;;;;;;5020844;28;20237;-88
2021/01/10 11:24:05;;;;;;;7.00;6.10;;;3.80;62.80;;;;;;5024253;28;20193;-88
2021/01/10 11:26:32;;;;;;;6.87;5.97;;;3.90;61.90;;;;;;5030983;28;20194;-88
2021/01/10 11:28:59;;;;;;;7.37;6.20;;;4.00;61.70;;;;;;5033599;28;20299;-88
2021/01/10 11:31:29;;;;;;;7.27;6.53;;;4.20;60.30;;;;;;5042437;28;20292;-88
2021/01/10 11:33:55;;;;;;;8.97;8.07;;;4.20;60.60;;;;;;5041720;28;20177;-88
2021/01/10 11:36:21;;;;;;;8.27;6.70;;;4.30;60.30;;;;;;5042371;28;20181;-88
2021/01/10 11:38:49;;;;;;;8.53;7.40;;;4.20;61.10;;;;;;5041116;28;20213;-88
2021/01/10 11:41:17;;;;;;;7.37;6.67;;;4.20;59.90;;;;;;5033713;28;20185;-88
2021/01/10 11:43:43;;;;;;;7.43;6.63;;;4.30;59.30;;;;;;5021877;28;20193;-88
2021/01/10 11:46:09;;;;;;;7.97;7.17;;;4.50;59.50;;;;;;5022337;28;20197;-88
2021/01/10 11:48:36;;;;;;;7.60;6.60;;;4.70;58.90;;;;;;5022413;28;20288;-88
2021/01/10 11:51:04;;;;;;;7.50;6.60;;;4.80;58.30;;;;;;5020797;28;20205;-87
2021/01/10 11:53:30;;;;;;;7.87;7.07;;;4.80;58.50;;;;;;5020053;28;20216;-87
2021/01/10 11:55:57;;;;;;;7.23;6.43;;;4.90;57.50;;;;;;5004603;28;20193;-86
2021/01/10 11:58:22;;;;;;;7.90;7.10;;;4.90;57.90;;;;;;5021985;28;20248;-88
2021/01/10 12:00:52;;;;;;;7.37;6.53;;;4.90;57.50;;;;;;5023623;28;20198;-88
2021/01/10 12:03:19;;;;;;;6.77;6.10;;;5.10;57.30;;;;;;5007392;28;20182;-88
2021/01/10 12:05:45;;;;;;;8.07;6.37;;;5.30;56.60;;;;;;5025803;28;20249;-88
2021/01/10 12:08:11;;;;;;;7.53;6.63;;;5.30;55.60;;;;;;5022829;28;20202;-88
2021/01/10 12:10:37;;;;;;;6.87;6.07;;;5.20;55.90;;;;;;5018789;28;20206;-88
2021/01/10 12:13:04;;;;;;;6.73;6.00;;;5.30;56.90;;;;;;5017699;28;20181;-88
2021/01/10 12:15:33;;;;;;;6.60;5.87;;;5.30;55.10;;;;;;5016604;28;20244;-88
2021/01/10 12:17:59;;;;;;;6.60;5.83;;;5.30;55.80;;;;;;5000049;28;20223;-89
2021/01/10 12:20:24;;;;;;;5.87;5.30;;;5.20;54.30;;;;;;5018288;28;20268;-89
2021/01/10 12:22:50;;;;;;;6.50;5.80;;;5.10;55.40;;;;;;4984970;28;20221;-89
2021/01/10 12:25:16;;;;;;;6.97;6.27;;;5.10;54.30;;;;;;5000568;28;20243;-89
2021/01/10 12:27:42;;;;;;;6.10;5.50;;;5.10;54.80;;;;;;4998563;28;20748;-88
2021/01/10 12:30:08;;;;;;;10.23;5.67;;;5.20;53.70;;;;;;5026903;28;20246;-89
2021/01/10 12:32:38;;;;;;;5.77;5.27;;;5.40;53.60;;;;;;5000456;28;20355;-89
2021/01/10 12:35:05;;;;;;;5.83;5.20;;;5.40;53.30;;;;;;5019903;28;20253;-88
2021/01/10 12:37:31;;;;;;;5.70;5.10;;;5.70;53.10;;;;;;5018696;28;20197;-88
2021/01/10 12:39:57;;;;;;;5.53;4.90;;;5.60;52.40;;;;;;5020296;28;20174;-88
2021/01/10 12:42:23;;;;;;;5.43;4.93;;;5.50;53.30;;;;;;5018268;28;20181;-88
2021/01/10 12:44:49;;;;;;;6.10;5.50;;;5.70;52.40;;;;;;5019229;28;20185;-88
2021/01/10 12:47:15;;;;;;;5.97;5.43;;;5.80;52.70;;;;;;5019254;28;20193;-88
2021/01/10 12:49:41;;;;;;;5.73;5.20;;;5.90;51.60;;;;;;5018101;28;20186;-88
2021/01/10 12:52:06;;;;;;;8.70;5.07;;;5.80;51.50;;;;;;5019777;28;20300;-88
2021/01/10 12:54:32;;;;;;;5.83;5.30;;;6.00;51.80;;;;;;5000284;28;20200;-88
2021/01/10 12:56:58;;;;;;;5.83;5.30;;;5.90;52.10;;;;;;5001670;28;20723;-90
2021/01/10 12:59:24;;;;;;;6.23;5.23;;;6.00;52.20;;;;;;5018374;28;20237;-89
2021/01/10 13:01:50;;;;;;;7.87;5.87;;;6.00;51.00;;;;;;5019959;28;20193;-89